createdAt,value
2019-04-14T00:00:51.454Z,39.45
2019-04-14T00:03:34.748Z,45.17
2019-04-14T00:06:05.283Z,37.78
2019-04-14T00:08:34.839Z,42.10
2019-04-14T00:11:04.016Z,41.88
2019-04-14T00:13:32.822Z,39.92
2019-04-14T00:16:01.410Z,42.48
2019-04-14T00:18:29.994Z,42.55
2019-04-14T00:20:59.767Z,34.23
2019-04-14T00:23:28.546Z,38.48
2019-04-14T00:26:16.961Z,41.37
2019-04-14T00:28:46.884Z,49.98
2019-04-14T00:31:15.668Z,35.85
2019-04-14T00:33:45.305Z,40.45
2019-04-14T00:36:17.509Z,37.90
2019-04-14T00:38:47.914Z,36.53
2019-04-14T00:41:32.985Z,40.73
2019-04-14T00:44:01.878Z,34.80
2019-04-14T00:46:38.797Z,41.05
2019-04-14T00:49:07.536Z,40.08
2019-04-14T00:51:38.232Z,43.10
2019-04-14T00:54:06.693Z,48.48
2019-04-14T00:56:35.225Z,39.38
2019-04-14T00:59:04.932Z,38.70
2019-04-14T01:01:33.642Z,40.40
2019-04-14T01:04:03.390Z,41.65
2019-04-14T01:06:32.074Z,43.92
2019-04-14T01:09:00.674Z,40.23
2019-04-14T01:11:29.236Z,43.38
2019-04-14T01:13:57.838Z,42.10
2019-04-14T01:16:27.041Z,40.52
2019-04-14T01:18:56.587Z,37.95
2019-04-14T01:21:26.265Z,46.63
2019-04-14T01:23:54.937Z,41.77
2019-04-14T01:26:24.572Z,40.73
2019-04-14T01:28:53.306Z,43.42
2019-04-14T01:31:25.109Z,41.58
2019-04-14T01:33:53.270Z,39.75
2019-04-14T01:36:22.074Z,38.28
2019-04-14T01:38:51.745Z,43.58
2019-04-14T01:41:20.306Z,42.43
2019-04-14T01:43:49.643Z,37.93
2019-04-14T01:46:23.140Z,38.58
2019-04-14T01:48:49.608Z,43.83
2019-04-14T01:51:20.278Z,33.02
2019-04-14T01:54:06.899Z,42.70
2019-04-14T01:56:37.114Z,43.85
2019-04-14T01:59:08.624Z,42.05
2019-04-14T02:01:42.060Z,40.43
2019-04-14T02:04:11.676Z,43.10
2019-04-14T02:06:40.374Z,40.15
2019-04-14T02:09:12.083Z,46.75
2019-04-14T02:11:40.771Z,41.73
2019-04-14T02:14:10.393Z,45.33
2019-04-14T02:16:44.434Z,46.90
2019-04-14T02:19:09.449Z,35.88
2019-04-14T02:21:38.857Z,41.92
2019-04-14T02:24:07.593Z,48.68
2019-04-14T02:26:37.299Z,41.58
2019-04-14T02:29:05.989Z,30.43
2019-04-14T02:32:00.026Z,41.73
2019-04-14T02:37:08.416Z,44.90
2019-04-14T02:42:20.917Z,43.73
2019-04-14T02:44:38.425Z,40.83
2019-04-14T02:49:34.938Z,40.73
2019-04-14T02:52:04.690Z,37.93
2019-04-14T02:54:43.634Z,41.83
2019-04-14T02:57:12.581Z,40.50
2019-04-14T02:59:36.253Z,42.70
2019-04-14T03:04:25.775Z,40.80
2019-04-14T03:07:05.393Z,49.93
2019-04-14T03:09:42.352Z,41.60
2019-04-14T03:12:16.753Z,49.05
2019-04-14T03:14:45.503Z,43.02
2019-04-14T03:17:26.988Z,43.98
2019-04-14T03:22:33.090Z,46.55
2019-04-14T03:25:00.486Z,45.05
2019-04-14T03:27:50.174Z,50.48
2019-04-14T03:30:51.253Z,46.10
2019-04-14T03:36:01.398Z,47.25
2019-04-14T03:37:50.786Z,42.17
2019-04-14T03:40:28.445Z,44.15
2019-04-14T03:43:03.965Z,51.00
2019-04-14T03:45:36.255Z,41.60
2019-04-14T03:48:16.839Z,48.45
2019-04-14T03:50:21.138Z,44.93
2019-04-14T03:52:55.754Z,42.10
2019-04-14T03:55:17.359Z,47.17
2019-04-14T03:57:31.690Z,43.42
2019-04-14T04:00:00.736Z,49.33
2019-04-14T04:02:29.479Z,47.00
2019-04-14T04:04:58.041Z,47.27
2019-04-14T04:07:27.811Z,53.28
2019-04-14T04:09:58.363Z,45.17
2019-04-14T04:12:27.185Z,46.58
2019-04-14T04:14:55.891Z,47.25
2019-04-14T04:17:31.909Z,45.50
2019-04-14T04:20:02.553Z,45.12
2019-04-14T04:22:32.963Z,46.18
2019-04-14T04:25:09.491Z,55.43
2019-04-14T04:27:42.555Z,48.05
2019-04-14T04:30:27.982Z,50.58
2019-04-14T04:32:58.186Z,45.45
2019-04-14T04:35:32.452Z,45.45
2019-04-14T04:38:03.052Z,52.38
2019-04-14T04:40:33.218Z,53.63
2019-04-14T04:43:01.878Z,55.55
2019-04-14T04:45:30.466Z,56.75
2019-04-14T04:48:00.117Z,49.08
2019-04-14T04:50:28.914Z,54.00
2019-04-14T04:52:58.288Z,55.03
2019-04-14T04:55:26.861Z,53.48
2019-04-14T04:57:56.588Z,44.50
2019-04-14T05:00:26.425Z,46.88
2019-04-14T05:02:55.175Z,46.65
2019-04-14T05:06:00.440Z,51.20
2019-04-14T05:08:28.970Z,46.40
2019-04-14T05:10:59.207Z,50.63
2019-04-14T05:13:29.212Z,53.48
2019-04-14T05:15:57.814Z,50.40
2019-04-14T05:18:26.818Z,57.08
2019-04-14T05:20:55.535Z,48.55
2019-04-14T05:23:24.042Z,57.45
2019-04-14T05:25:53.764Z,49.67
2019-04-14T05:28:22.485Z,60.58
2019-04-14T05:30:51.066Z,46.95
2019-04-14T05:33:20.631Z,53.75
2019-04-14T05:35:49.316Z,52.75
2019-04-14T05:38:18.965Z,59.13
2019-04-14T05:40:47.749Z,51.85
2019-04-14T05:43:28.386Z,54.33
2019-04-14T05:45:46.561Z,50.58
2019-04-14T05:48:16.003Z,52.43
2019-04-14T05:50:44.630Z,52.90
2019-04-14T05:53:13.250Z,51.50
2019-04-14T05:55:41.954Z,50.10
2019-04-14T05:58:10.544Z,51.08
2019-04-14T06:00:42.052Z,47.43
2019-04-14T06:03:10.739Z,47.88
2019-04-14T06:05:40.333Z,53.17
2019-04-14T06:08:08.961Z,48.80
2019-04-14T06:10:37.550Z,57.38
2019-04-14T06:13:06.117Z,55.60
2019-04-14T06:15:35.282Z,58.87
2019-04-14T06:18:04.279Z,64.22
2019-04-14T06:20:33.489Z,61.95
2019-04-14T06:23:02.018Z,57.17
2019-04-14T06:25:30.605Z,63.45
2019-04-14T06:27:59.170Z,60.83
2019-04-14T06:30:32.387Z,67.53
2019-04-14T06:33:02.601Z,55.15
2019-04-14T06:35:32.813Z,52.03
2019-04-14T06:38:06.005Z,54.93
2019-04-14T06:40:36.306Z,69.97
2019-04-14T06:43:04.934Z,58.30
2019-04-14T06:45:33.514Z,68.17
2019-04-14T06:48:02.078Z,57.78
2019-04-14T06:50:30.660Z,68.07
2019-04-14T06:52:59.217Z,57.60
2019-04-14T06:55:27.777Z,64.82
2019-04-14T06:57:56.360Z,59.98
2019-04-14T07:00:24.990Z,72.37
2019-04-14T07:02:53.595Z,59.80
2019-04-14T07:05:22.217Z,64.55
2019-04-14T07:07:56.865Z,61.20
2019-04-14T07:10:20.998Z,55.25
2019-04-14T07:12:49.595Z,56.33
2019-04-14T07:15:18.215Z,58.80
2019-04-14T07:17:46.824Z,61.75
2019-04-14T07:20:15.398Z,58.98
2019-04-14T07:22:44.180Z,54.67
2019-04-14T07:25:12.744Z,57.13
2019-04-14T07:27:41.399Z,58.10
2019-04-14T07:30:20.694Z,54.73
2019-04-14T07:32:50.939Z,68.22
2019-04-14T07:35:37.622Z,55.30
2019-04-14T07:38:10.811Z,58.92
2019-04-14T07:40:41.041Z,62.13
2019-04-14T07:43:11.330Z,66.12
2019-04-14T07:45:53.155Z,73.45
2019-04-14T07:48:23.475Z,59.67
2019-04-14T07:51:02.668Z,59.93
2019-04-14T07:53:38.879Z,61.65
2019-04-14T07:56:09.082Z,58.75
2019-04-14T07:58:45.345Z,60.80
2019-04-14T08:01:15.690Z,57.25
2019-04-14T08:03:55.169Z,59.15
2019-04-14T08:06:23.875Z,62.75
2019-04-14T08:08:52.395Z,57.50
2019-04-14T08:11:20.982Z,60.12
2019-04-14T08:13:49.824Z,62.83
2019-04-14T08:16:18.360Z,62.73
2019-04-14T08:18:47.005Z,62.70
2019-04-14T08:21:15.630Z,58.95
2019-04-14T08:23:44.479Z,54.30
2019-04-14T08:26:13.403Z,49.50
2019-04-14T08:28:42.641Z,56.65
2019-04-14T08:31:11.496Z,59.73
2019-04-14T08:33:40.059Z,44.80
2019-04-14T08:36:08.864Z,52.78
2019-04-14T08:38:37.446Z,49.80
2019-04-14T08:41:06.012Z,54.33
2019-04-14T08:43:52.643Z,33.53
2019-04-14T08:46:22.986Z,23.20
2019-04-14T08:48:59.127Z,27.37
2019-04-14T08:51:35.467Z,23.85
2019-04-14T08:54:05.688Z,28.15
2019-04-14T08:56:52.249Z,23.47
2019-04-14T08:59:22.478Z,22.77
2019-04-14T09:01:58.651Z,21.10
2019-04-14T09:04:28.850Z,22.20
2019-04-14T09:07:07.962Z,21.90
2019-04-14T09:09:38.173Z,19.90
2019-04-14T09:12:15.688Z,20.92
2019-04-14T09:14:41.805Z,30.48
2019-04-14T09:17:11.418Z,19.00
2019-04-14T09:19:39.984Z,15.40
2019-04-14T09:22:08.565Z,17.00
2019-04-14T09:24:37.117Z,14.83
2019-04-14T09:27:05.723Z,9.95
2019-04-14T09:29:34.318Z,13.50
2019-04-14T09:32:04.850Z,9.55
2019-04-14T09:34:33.412Z,9.13
2019-04-14T09:37:02.483Z,11.55
2019-04-14T09:39:31.009Z,9.73
2019-04-14T09:42:00.034Z,10.40
2019-04-14T09:44:28.613Z,8.80
2019-04-14T09:46:57.177Z,9.25
2019-04-14T09:49:25.757Z,8.15
2019-04-14T09:51:54.311Z,8.18
2019-04-14T09:54:22.896Z,7.72
2019-04-14T09:56:51.482Z,14.35
2019-04-14T09:59:20.112Z,7.42
2019-04-14T10:01:48.747Z,5.17
2019-04-14T10:04:17.338Z,4.55
2019-04-14T10:06:45.919Z,5.72
2019-04-14T10:09:14.613Z,7.87
2019-04-14T10:11:48.909Z,5.03
2019-04-14T10:14:13.583Z,6.62
2019-04-14T10:16:42.244Z,8.08
2019-04-14T10:19:10.837Z,6.20
2019-04-14T10:21:39.393Z,6.78
2019-04-14T10:24:07.967Z,9.20
2019-04-14T10:26:36.559Z,11.57
2019-04-14T10:29:05.212Z,13.13
2019-04-14T10:31:33.800Z,13.70
2019-04-14T10:34:02.481Z,8.43
2019-04-14T10:36:31.025Z,7.00
2019-04-14T10:38:59.606Z,7.50
2019-04-14T10:41:28.161Z,6.70
2019-04-14T10:43:56.734Z,9.75
2019-04-14T10:46:25.287Z,7.42
2019-04-14T10:48:53.866Z,9.13
2019-04-14T10:51:29.943Z,8.88
2019-04-14T10:53:52.633Z,7.83
2019-04-14T10:56:21.245Z,8.43
2019-04-14T10:58:49.919Z,8.00
2019-04-14T11:01:18.883Z,7.67
2019-04-14T11:03:47.712Z,8.30
2019-04-14T11:06:30.113Z,8.20
2019-04-14T11:08:58.686Z,7.45
2019-04-14T11:11:27.250Z,7.08
2019-04-14T11:13:55.836Z,7.83
2019-04-14T11:16:24.690Z,17.25
2019-04-14T11:18:53.377Z,7.67
2019-04-14T11:21:22.220Z,11.85
2019-04-14T11:23:50.862Z,6.90
2019-04-14T11:26:19.586Z,10.20
2019-04-14T11:28:48.330Z,6.22
2019-04-14T11:31:18.670Z,12.88
2019-04-14T11:34:00.236Z,7.55
2019-04-14T11:36:47.381Z,12.23
2019-04-14T11:39:17.830Z,12.18
2019-04-14T11:41:46.553Z,8.95
2019-04-14T11:44:15.518Z,9.80
2019-04-14T11:46:44.229Z,8.78
2019-04-14T11:49:15.854Z,11.10
2019-04-14T11:51:55.067Z,8.73
2019-04-14T11:54:17.274Z,8.03
2019-04-14T11:56:45.990Z,10.08
2019-04-14T11:59:15.400Z,8.75
2019-04-14T12:01:48.271Z,9.78
2019-04-14T12:04:21.953Z,9.58
2019-04-14T12:06:58.489Z,9.18
2019-04-14T12:09:29.558Z,14.03
2019-04-14T12:11:58.229Z,10.90
2019-04-14T12:14:26.831Z,8.23
2019-04-14T12:16:55.541Z,8.98
2019-04-14T12:19:24.203Z,10.03
2019-04-14T12:21:53.095Z,9.68
2019-04-14T12:24:21.798Z,8.70
2019-04-14T12:26:50.466Z,10.82
2019-04-14T12:29:19.178Z,11.08
2019-04-14T12:31:49.076Z,8.35
2019-04-14T12:34:27.479Z,9.40
2019-04-14T12:36:56.089Z,9.65
2019-04-14T12:39:24.927Z,7.97
2019-04-14T12:42:12.540Z,10.78
2019-04-14T12:44:52.510Z,13.38
2019-04-14T12:47:25.688Z,8.38
2019-04-14T12:49:58.329Z,11.93
2019-04-14T12:52:29.930Z,7.95
2019-04-14T12:54:59.445Z,9.20
2019-04-14T12:57:35.826Z,11.45
2019-04-14T13:00:07.222Z,9.70
2019-04-14T13:02:37.419Z,10.48
2019-04-14T13:05:06.484Z,8.95
2019-04-14T13:07:36.871Z,10.18
2019-04-14T13:10:07.067Z,9.95
2019-04-14T13:12:35.653Z,10.25
2019-04-14T13:15:06.358Z,10.58
2019-04-14T13:17:34.934Z,11.50
2019-04-14T13:20:05.430Z,11.93
2019-04-14T13:22:34.532Z,11.25
2019-04-14T13:25:03.210Z,12.73
2019-04-14T13:27:31.789Z,12.35
2019-04-14T13:30:00.355Z,15.70
2019-04-14T13:32:35.757Z,17.87
2019-04-14T13:34:59.126Z,11.90
2019-04-14T13:37:27.755Z,10.90
2019-04-14T13:40:01.081Z,16.52
2019-04-14T13:42:29.645Z,14.73
2019-04-14T13:44:58.202Z,11.43
2019-04-14T13:47:26.929Z,12.55
2019-04-14T13:49:56.737Z,15.03
2019-04-14T13:52:25.438Z,13.50
2019-04-14T13:54:55.042Z,10.78
2019-04-14T13:57:23.670Z,13.95
2019-04-14T13:59:52.368Z,12.88
2019-04-14T14:02:20.984Z,16.27
2019-04-14T14:04:49.616Z,26.45
2019-04-14T14:07:18.809Z,25.92
2019-04-14T14:09:47.681Z,20.30
2019-04-14T14:12:26.730Z,21.80
2019-04-14T14:15:12.500Z,25.32
2019-04-14T14:17:43.856Z,23.52
2019-04-14T14:20:21.420Z,26.23
2019-04-14T14:22:59.549Z,31.68
2019-04-14T14:25:35.231Z,38.20
2019-04-14T14:28:03.884Z,36.35
2019-04-14T14:30:32.456Z,38.23
2019-04-14T14:33:01.031Z,42.60
2019-04-14T14:35:29.590Z,44.25
2019-04-14T14:37:58.307Z,40.03
2019-04-14T14:40:26.835Z,38.28
2019-04-14T14:42:55.679Z,38.25
2019-04-14T14:45:28.444Z,39.80
2019-04-14T14:48:07.542Z,47.25
2019-04-14T14:50:41.142Z,39.92
2019-04-14T14:53:12.194Z,38.67
2019-04-14T14:55:40.477Z,38.25
2019-04-14T14:58:08.990Z,30.20
2019-04-14T15:00:37.555Z,30.32
2019-04-14T15:03:06.606Z,32.98
2019-04-14T15:05:35.173Z,28.52
2019-04-14T15:08:03.763Z,35.38
2019-04-14T15:10:32.349Z,34.15
2019-04-14T15:13:00.934Z,32.63
2019-04-14T15:15:29.502Z,31.93
2019-04-14T15:17:58.574Z,31.25
2019-04-14T15:20:27.148Z,30.65
2019-04-14T15:22:55.771Z,36.58
2019-04-14T15:25:24.393Z,36.23
2019-04-14T15:27:53.030Z,34.60
2019-04-14T15:30:23.067Z,37.25
2019-04-14T15:32:51.742Z,41.20
2019-04-14T15:35:20.362Z,45.03
2019-04-14T15:37:49.078Z,46.42
2019-04-14T15:40:18.297Z,43.10
2019-04-14T15:42:46.970Z,40.03
2019-04-14T15:45:15.907Z,42.15
2019-04-14T15:47:45.608Z,53.42
2019-04-14T15:50:14.935Z,46.40
2019-04-14T15:52:44.145Z,52.17
2019-04-14T15:55:15.864Z,47.10
2019-04-14T15:57:46.331Z,63.48
2019-04-14T16:00:26.105Z,56.85
2019-04-14T16:02:56.382Z,68.60
2019-04-14T16:05:29.606Z,61.92
2019-04-14T16:07:59.802Z,55.08
2019-04-14T16:10:46.738Z,59.10
2019-04-14T16:13:19.604Z,63.98
2019-04-14T16:15:52.574Z,66.30
2019-04-14T16:18:25.519Z,71.40
2019-04-14T16:20:54.115Z,64.77
2019-04-14T16:23:22.734Z,82.92
2019-04-14T16:25:53.006Z,79.92
2019-04-14T16:28:41.639Z,86.67
2019-04-14T16:31:28.062Z,82.95
2019-04-14T16:34:16.239Z,93.07
2019-04-14T16:36:46.591Z,86.55
2019-04-14T16:39:17.205Z,79.17
2019-04-14T16:41:46.053Z,78.65
2019-04-14T16:44:15.282Z,97.97
2019-04-14T16:46:44.213Z,90.47
2019-04-14T16:49:14.584Z,82.40
2019-04-14T16:51:47.883Z,89.65
2019-04-14T16:54:21.097Z,121.70
2019-04-14T16:56:51.347Z,84.80
2019-04-14T16:59:20.066Z,100.20
2019-04-14T17:01:52.981Z,92.92
2019-04-14T17:04:21.670Z,83.85
2019-04-14T17:06:50.324Z,85.17
2019-04-14T17:09:18.938Z,95.95
2019-04-14T17:11:47.565Z,86.57
2019-04-14T17:14:17.900Z,102.35
2019-04-14T17:16:53.881Z,116.90
2019-04-14T17:19:24.085Z,99.47
2019-04-14T17:22:00.105Z,116.00
2019-04-14T17:24:32.825Z,127.70
2019-04-14T17:27:03.046Z,132.82
2019-04-14T17:29:49.790Z,122.30
2019-04-14T17:32:20.039Z,117.85
2019-04-14T17:34:52.938Z,136.72
2019-04-14T17:37:25.641Z,108.12
2019-04-14T17:39:55.842Z,132.35
2019-04-14T17:42:34.859Z,111.45
2019-04-14T17:45:06.167Z,124.38
2019-04-14T17:47:48.512Z,138.85
2019-04-14T17:50:24.519Z,134.00
2019-04-14T17:52:57.172Z,201.07
2019-04-14T17:55:49.399Z,98.82
2019-04-14T17:58:14.325Z,123.95
2019-04-14T18:01:01.035Z,112.85
2019-04-14T18:03:37.501Z,143.78
2019-04-14T18:06:16.943Z,124.97
2019-04-14T18:09:03.433Z,163.20
2019-04-14T18:11:42.387Z,161.92
2019-04-14T18:14:18.846Z,165.52
2019-04-14T18:17:04.101Z,180.15
2019-04-14T18:19:49.464Z,102.87
2019-04-14T18:22:18.271Z,116.62
2019-04-14T18:24:47.378Z,181.20
2019-04-14T18:27:16.275Z,211.72
2019-04-14T18:29:59.030Z,138.35
2019-04-14T18:32:31.745Z,132.00
2019-04-14T18:35:01.951Z,240.82
2019-04-14T18:37:32.178Z,130.87
2019-04-14T18:40:11.387Z,154.70
2019-04-14T18:42:57.857Z,131.47
2019-04-14T18:45:28.062Z,212.65
2019-04-14T18:47:58.290Z,122.80
2019-04-14T18:50:45.073Z,154.45
2019-04-14T18:53:18.712Z,126.92
2019-04-14T18:55:54.863Z,195.57
2019-04-14T18:58:43.199Z,186.77
2019-04-14T19:01:22.317Z,211.25
2019-04-14T19:03:51.045Z,162.85
2019-04-14T19:06:19.663Z,105.85
2019-04-14T19:08:49.214Z,158.27
2019-04-14T19:11:25.211Z,115.55
2019-04-14T19:13:55.501Z,157.32
2019-04-14T19:16:39.555Z,172.28
2019-04-14T19:19:05.428Z,147.22
2019-04-14T19:21:34.049Z,205.60
2019-04-14T19:24:02.578Z,242.28
2019-04-14T19:26:31.155Z,210.72
2019-04-14T19:28:59.725Z,170.82
2019-04-14T19:31:28.286Z,198.25
2019-04-14T19:33:56.874Z,340.85
2019-04-14T19:36:25.438Z,271.55
2019-04-14T19:38:54.026Z,183.18
2019-04-14T19:41:22.611Z,153.90
2019-04-14T19:43:51.233Z,227.62
2019-04-14T19:46:20.121Z,287.93
2019-04-14T19:48:48.878Z,216.97
2019-04-14T19:51:17.468Z,159.48
2019-04-14T19:53:46.420Z,262.25
2019-04-14T19:56:15.213Z,289.20
2019-04-14T19:58:43.841Z,207.40
2019-04-14T20:01:12.418Z,147.02
2019-04-14T20:03:41.118Z,178.68
2019-04-14T20:06:09.701Z,250.28
2019-04-14T20:08:38.282Z,182.55
2019-04-14T20:11:06.853Z,266.40
2019-04-14T20:13:37.085Z,150.57
2019-04-14T20:16:10.079Z,217.87
2019-04-14T20:18:44.544Z,215.52
2019-04-14T20:21:23.822Z,191.95
2019-04-14T20:24:09.309Z,185.03
2019-04-14T20:26:48.661Z,227.22
2019-04-14T20:29:21.627Z,198.32
2019-04-14T20:31:51.974Z,185.50
2019-04-14T20:34:20.566Z,240.37
2019-04-14T20:36:49.235Z,205.75
2019-04-14T20:39:19.105Z,116.35
2019-04-14T20:41:47.700Z,147.20
2019-04-14T20:44:16.446Z,131.82
2019-04-14T20:46:45.269Z,116.05
2019-04-14T20:49:14.481Z,112.55
2019-04-14T20:51:43.135Z,120.08
2019-04-14T20:54:11.740Z,138.20
2019-04-14T20:56:40.293Z,133.60
2019-04-14T20:59:08.875Z,111.52
2019-04-14T21:01:39.078Z,121.65
2019-04-14T21:04:25.696Z,123.18
2019-04-14T21:07:12.471Z,102.22
2019-04-14T21:09:54.866Z,140.85
2019-04-14T21:12:41.325Z,99.70
2019-04-14T21:15:14.647Z,125.67
2019-04-14T21:17:44.899Z,111.30
2019-04-14T21:20:17.801Z,120.15
2019-04-14T21:22:57.039Z,129.03
2019-04-14T21:25:39.478Z,135.15
2019-04-14T21:28:12.749Z,114.75
2019-04-14T21:30:42.978Z,148.90
2019-04-14T21:33:13.186Z,150.87
2019-04-14T21:35:52.419Z,130.07
2019-04-14T21:38:22.641Z,118.40
2019-04-14T21:41:02.029Z,176.90
2019-04-14T21:43:30.573Z,152.40
2019-04-14T21:45:59.166Z,98.35
2019-04-14T21:48:27.738Z,93.33
2019-04-14T21:50:56.336Z,120.95
2019-04-14T21:53:24.897Z,106.27
2019-04-14T21:55:53.507Z,98.90
2019-04-14T21:58:26.394Z,113.85
2019-04-14T22:01:36.715Z,157.10
2019-04-14T22:04:13.373Z,165.47
2019-04-14T22:06:43.661Z,271.18
2019-04-14T22:09:19.405Z,94.45
2019-04-14T22:11:48.161Z,135.15
2019-04-14T22:14:16.726Z,126.78
2019-04-14T22:16:45.315Z,125.75
2019-04-14T22:19:13.878Z,105.05
2019-04-14T22:21:42.466Z,102.95
2019-04-14T22:24:11.029Z,126.15
2019-04-14T22:26:39.681Z,147.95
2019-04-14T22:29:08.251Z,102.80
2019-04-14T22:31:36.834Z,109.75
2019-04-14T22:34:05.570Z,115.30
2019-04-14T22:36:34.197Z,108.55
2019-04-14T22:39:04.374Z,118.42
2019-04-14T22:41:32.958Z,171.60
2019-04-14T22:44:01.529Z,117.70
2019-04-14T22:46:30.129Z,109.65
2019-04-14T22:48:58.711Z,130.07
2019-04-14T22:51:27.307Z,110.80
2019-04-14T22:53:56.921Z,122.42
2019-04-14T22:56:38.343Z,116.57
2019-04-14T22:58:55.843Z,104.17
2019-04-14T23:01:26.159Z,99.60
2019-04-14T23:04:05.440Z,112.42
2019-04-14T23:06:35.738Z,107.52
2019-04-14T23:09:10.215Z,155.60
2019-04-14T23:11:40.430Z,243.60
2019-04-14T23:14:27.512Z,121.60
2019-04-14T23:17:12.451Z,122.75
2019-04-14T23:19:42.760Z,180.40
2019-04-14T23:22:29.474Z,105.55
2019-04-14T23:24:58.041Z,205.77
2019-04-14T23:27:26.814Z,168.17
2019-04-14T23:29:55.389Z,112.60
2019-04-14T23:32:24.370Z,117.35
2019-04-14T23:34:54.410Z,133.72
2019-04-14T23:37:23.357Z,120.80
2019-04-14T23:39:52.051Z,94.95
2019-04-14T23:42:20.633Z,122.78
2019-04-14T23:44:49.197Z,120.45
2019-04-14T23:47:17.803Z,116.03
2019-04-14T23:49:46.393Z,105.75
2019-04-14T23:52:15.190Z,103.90
2019-04-14T23:54:43.771Z,109.35
2019-04-14T23:57:13.553Z,95.00
2019-04-14T23:59:42.123Z,111.40
